sensor_id;sensor_type;location;lat;lon;timestamp;pressure;altitude;pressure_sealevel;temperature;humidity
20630;BME280;17386;43.846;25.950;2023-04-20T00:01:06;100823.91;;;13.41;100.00
20630;BME280;17386;43.846;25.950;2023-04-20T00:03:31;100826.66;;;13.40;100.00
20630;BME280;17386;43.846;25.950;2023-04-20T00:05:57;100821.41;;;13.38;100.00
20630;BME280;17386;43.846;25.950;2023-04-20T00:08:27;100813.53;;;13.35;100.00
20630;BME280;17386;43.846;25.950;2023-04-20T00:10:52;100810.28;;;13.29;100.00
20630;BME280;17386;43.846;25.950;2023-04-20T00:13:17;100808.91;;;13.20;100.00
20630;BME280;17386;43.846;25.950;2023-04-20T00:15:43;100806.22;;;13.20;100.00
20630;BME280;17386;43.846;25.950;2023-04-20T00:18:08;100808.06;;;13.18;100.00
20630;BME280;17386;43.846;25.950;2023-04-20T00:20:34;100806.31;;;13.17;100.00
20630;BME280;17386;43.846;25.950;2023-04-20T00:23:00;100804.66;;;13.14;100.00
20630;BME280;17386;43.846;25.950;2023-04-20T00:25:25;100810.94;;;13.13;100.00
20630;BME280;17386;43.846;25.950;2023-04-20T00:27:51;100797.72;;;13.10;100.00
20630;BME280;17386;43.846;25.950;2023-04-20T00:30:16;100795.22;;;13.07;100.00
20630;BME280;17386;43.846;25.950;2023-04-20T00:32:41;100797.00;;;13.07;100.00
20630;BME280;17386;43.846;25.950;2023-04-20T00:35:07;100808.53;;;13.07;100.00
20630;BME280;17386;43.846;25.950;2023-04-20T00:37:33;100799.69;;;13.07;100.00
20630;BME280;17386;43.846;25.950;2023-04-20T00:39:58;100806.81;;;13.06;100.00
20630;BME280;17386;43.846;25.950;2023-04-20T00:42:23;100797.09;;;13.05;100.00
20630;BME280;17386;43.846;25.950;2023-04-20T00:44:49;100801.56;;;13.05;100.00
20630;BME280;17386;43.846;25.950;2023-04-20T00:47:15;100798.16;;;13.01;100.00
20630;BME280;17386;43.846;25.950;2023-04-20T00:49:41;100799.16;;;12.99;100.00
20630;BME280;17386;43.846;25.950;2023-04-20T00:52:07;100808.91;;;13.00;100.00
20630;BME280;17386;43.846;25.950;2023-04-20T00:54:33;100810.53;;;13.02;100.00
20630;BME280;17386;43.846;25.950;2023-04-20T00:57:00;100808.81;;;13.01;100.00
20630;BME280;17386;43.846;25.950;2023-04-20T00:59:26;100812.28;;;13.03;100.00
20630;BME280;17386;43.846;25.950;2023-04-20T01:01:52;100798.22;;;13.00;100.00
20630;BME280;17386;43.846;25.950;2023-04-20T01:04:18;100808.69;;;13.04;100.00
20630;BME280;17386;43.846;25.950;2023-04-20T01:06:43;100805.03;;;13.07;100.00
20630;BME280;17386;43.846;25.950;2023-04-20T01:09:09;100801.41;;;13.08;100.00
20630;BME280;17386;43.846;25.950;2023-04-20T01:11:35;100798.63;;;13.11;100.00
20630;BME280;17386;43.846;25.950;2023-04-20T01:14:00;100796.00;;;13.09;100.00
20630;BME280;17386;43.846;25.950;2023-04-20T01:16:25;100797.28;;;13.01;100.00
20630;BME280;17386;43.846;25.950;2023-04-20T01:18:51;100796.03;;;12.89;100.00
20630;BME280;17386;43.846;25.950;2023-04-20T01:21:18;100797.91;;;12.87;100.00
20630;BME280;17386;43.846;25.950;2023-04-20T01:23:46;100797.19;;;12.83;100.00
20630;BME280;17386;43.846;25.950;2023-04-20T01:26:14;100796.19;;;12.86;100.00
20630;BME280;17386;43.846;25.950;2023-04-20T01:28:40;100793.25;;;12.92;100.00
20630;BME280;17386;43.846;25.950;2023-04-20T01:31:06;100791.28;;;12.96;100.00
20630;BME280;17386;43.846;25.950;2023-04-20T01:33:32;100785.84;;;12.99;100.00
20630;BME280;17386;43.846;25.950;2023-04-20T01:35:58;100780.63;;;12.96;100.00
20630;BME280;17386;43.846;25.950;2023-04-20T01:38:24;100773.56;;;12.95;100.00
20630;BME280;17386;43.846;25.950;2023-04-20T01:40:50;100772.03;;;12.89;100.00
20630;BME280;17386;43.846;25.950;2023-04-20T01:43:18;100765.75;;;12.90;100.00
20630;BME280;17386;43.846;25.950;2023-04-20T01:45:44;100756.19;;;12.86;100.00
20630;BME280;17386;43.846;25.950;2023-04-20T01:48:09;100768.13;;;12.77;100.00
20630;BME280;17386;43.846;25.950;2023-04-20T01:50:34;100765.31;;;12.80;100.00
20630;BME280;17386;43.846;25.950;2023-04-20T01:53:00;100772.44;;;12.80;100.00
20630;BME280;17386;43.846;25.950;2023-04-20T01:55:26;100770.66;;;12.80;100.00
20630;BME280;17386;43.846;25.950;2023-04-20T01:57:51;100766.19;;;12.81;100.00
20630;BME280;17386;43.846;25.950;2023-04-20T02:00:17;100771.59;;;12.79;100.00
20630;BME280;17386;43.846;25.950;2023-04-20T02:02:42;100766.06;;;12.84;100.00
20630;BME280;17386;43.846;25.950;2023-04-20T02:05:08;100785.59;;;12.84;100.00
20630;BME280;17386;43.846;25.950;2023-04-20T02:07:34;100777.72;;;12.81;100.00
20630;BME280;17386;43.846;25.950;2023-04-20T02:09:59;100768.41;;;12.71;100.00
20630;BME280;17386;43.846;25.950;2023-04-20T02:12:24;100774.94;;;12.64;100.00
20630;BME280;17386;43.846;25.950;2023-04-20T02:14:50;100779.84;;;12.53;100.00
20630;BME280;17386;43.846;25.950;2023-04-20T02:17:16;100773.72;;;12.51;100.00
20630;BME280;17386;43.846;25.950;2023-04-20T02:19:42;100778.81;;;12.57;100.00
20630;BME280;17386;43.846;25.950;2023-04-20T02:22:07;100772.47;;;12.59;100.00
20630;BME280;17386;43.846;25.950;2023-04-20T02:24:33;100774.97;;;12.63;100.00
20630;BME280;17386;43.846;25.950;2023-04-20T02:26:58;100775.91;;;12.62;100.00
20630;BME280;17386;43.846;25.950;2023-04-20T02:29:24;100778.53;;;12.63;100.00
20630;BME280;17386;43.846;25.950;2023-04-20T02:31:49;100775.91;;;12.62;100.00
20630;BME280;17386;43.846;25.950;2023-04-20T02:34:15;100777.00;;;12.57;100.00
20630;BME280;17386;43.846;25.950;2023-04-20T02:36:40;100785.78;;;12.59;100.00
20630;BME280;17386;43.846;25.950;2023-04-20T02:39:06;100778.81;;;12.57;100.00
20630;BME280;17386;43.846;25.950;2023-04-20T02:41:31;100782.31;;;12.57;100.00
20630;BME280;17386;43.846;25.950;2023-04-20T02:43:57;100785.84;;;12.58;100.00
20630;BME280;17386;43.846;25.950;2023-04-20T02:46:22;100780.53;;;12.58;100.00
20630;BME280;17386;43.846;25.950;2023-04-20T02:48:47;100781.50;;;12.55;100.00
20630;BME280;17386;43.846;25.950;2023-04-20T02:51:13;100785.19;;;12.53;100.00
20630;BME280;17386;43.846;25.950;2023-04-20T02:53:38;100793.56;;;12.44;100.00
20630;BME280;17386;43.846;25.950;2023-04-20T02:56:04;100794.38;;;12.46;100.00
20630;BME280;17386;43.846;25.950;2023-04-20T02:58:29;100791.16;;;12.38;100.00
20630;BME280;17386;43.846;25.950;2023-04-20T03:01:01;100797.34;;;12.38;100.00
20630;BME280;17386;43.846;25.950;2023-04-20T03:03:27;100798.16;;;12.40;100.00
20630;BME280;17386;43.846;25.950;2023-04-20T03:05:53;100793.66;;;12.42;100.00
20630;BME280;17386;43.846;25.950;2023-04-20T03:08:20;100793.50;;;12.45;100.00
20630;BME280;17386;43.846;25.950;2023-04-20T03:10:45;100797.22;;;12.41;100.00
20630;BME280;17386;43.846;25.950;2023-04-20T03:13:11;100798.16;;;12.40;100.00
20630;BME280;17386;43.846;25.950;2023-04-20T03:15:36;100804.50;;;12.38;100.00
20630;BME280;17386;43.846;25.950;2023-04-20T03:18:01;100802.75;;;12.37;100.00
20630;BME280;17386;43.846;25.950;2023-04-20T03:20:28;100798.28;;;12.37;100.00
20630;BME280;17386;43.846;25.950;2023-04-20T03:22:53;100806.06;;;12.42;100.00
20630;BME280;17386;43.846;25.950;2023-04-20T03:25:19;100808.72;;;12.42;100.00
20630;BME280;17386;43.846;25.950;2023-04-20T03:27:45;100806.91;;;12.44;100.00
20630;BME280;17386;43.846;25.950;2023-04-20T03:30:12;100805.16;;;12.43;100.00
20630;BME280;17386;43.846;25.950;2023-04-20T03:32:38;100805.09;;;12.44;100.00
20630;BME280;17386;43.846;25.950;2023-04-20T03:35:04;100811.63;;;12.37;100.00
20630;BME280;17386;43.846;25.950;2023-04-20T03:37:30;100805.38;;;12.16;100.00
20630;BME280;17386;43.846;25.950;2023-04-20T03:39:55;100807.28;;;12.13;100.00
20630;BME280;17386;43.846;25.950;2023-04-20T03:42:21;100803.16;;;12.05;100.00
20630;BME280;17386;43.846;25.950;2023-04-20T03:44:46;100804.88;;;12.07;100.00
20630;BME280;17386;43.846;25.950;2023-04-20T03:47:12;100800.16;;;12.13;100.00
20630;BME280;17386;43.846;25.950;2023-04-20T03:49:37;100801.66;;;12.20;100.00
20630;BME280;17386;43.846;25.950;2023-04-20T03:52:03;100802.41;;;12.24;100.00
20630;BME280;17386;43.846;25.950;2023-04-20T03:54:29;100799.59;;;12.27;100.00
20630;BME280;17386;43.846;25.950;2023-04-20T03:56:54;100804.00;;;12.28;100.00
20630;BME280;17386;43.846;25.950;2023-04-20T03:59:20;100808.69;;;12.21;100.00
20630;BME280;17386;43.846;25.950;2023-04-20T04:01:45;100804.38;;;12.19;100.00
20630;BME280;17386;43.846;25.950;2023-04-20T04:04:10;100806.25;;;12.17;100.00
20630;BME280;17386;43.846;25.950;2023-04-20T04:06:36;100799.38;;;12.11;100.00
20630;BME280;17386;43.846;25.950;2023-04-20T04:09:01;100802.72;;;12.16;100.00
20630;BME280;17386;43.846;25.950;2023-04-20T04:11:26;100798.97;;;12.20;100.00
20630;BME280;17386;43.846;25.950;2023-04-20T04:13:54;100803.38;;;11.99;100.00
20630;BME280;17386;43.846;25.950;2023-04-20T04:16:20;100810.91;;;11.90;100.00
20630;BME280;17386;43.846;25.950;2023-04-20T04:18:46;100817.41;;;12.04;100.00
20630;BME280;17386;43.846;25.950;2023-04-20T04:21:11;100815.22;;;12.14;100.00
20630;BME280;17386;43.846;25.950;2023-04-20T04:23:37;100819.34;;;12.21;100.00
20630;BME280;17386;43.846;25.950;2023-04-20T04:26:02;100820.09;;;12.25;100.00
20630;BME280;17386;43.846;25.950;2023-04-20T04:28:29;100825.28;;;12.28;100.00
20630;BME280;17386;43.846;25.950;2023-04-20T04:30:55;100830.31;;;12.14;100.00
20630;BME280;17386;43.846;25.950;2023-04-20T04:33:21;100831.94;;;12.18;100.00
20630;BME280;17386;43.846;25.950;2023-04-20T04:35:46;100835.09;;;12.27;100.00
20630;BME280;17386;43.846;25.950;2023-04-20T04:38:12;100833.91;;;12.35;100.00
20630;BME280;17386;43.846;25.950;2023-04-20T04:40:38;100838.03;;;12.42;100.00
20630;BME280;17386;43.846;25.950;2023-04-20T04:43:06;100850.72;;;12.37;100.00
20630;BME280;17386;43.846;25.950;2023-04-20T04:45:32;100844.19;;;12.44;100.00
20630;BME280;17386;43.846;25.950;2023-04-20T04:47:57;100838.63;;;12.50;100.00
20630;BME280;17386;43.846;25.950;2023-04-20T04:50:23;100841.06;;;12.54;100.00
20630;BME280;17386;43.846;25.950;2023-04-20T04:52:48;100843.94;;;12.50;100.00
20630;BME280;17386;43.846;25.950;2023-04-20T04:55:14;100850.13;;;12.50;100.00
20630;BME280;17386;43.846;25.950;2023-04-20T04:57:39;100845.66;;;12.51;100.00
20630;BME280;17386;43.846;25.950;2023-04-20T05:00:05;100851.00;;;12.51;100.00
20630;BME280;17386;43.846;25.950;2023-04-20T05:02:33;100860.91;;;12.47;100.00
20630;BME280;17386;43.846;25.950;2023-04-20T05:04:59;100856.97;;;12.36;100.00
20630;BME280;17386;43.846;25.950;2023-04-20T05:07:24;100858.81;;;12.33;100.00
20630;BME280;17386;43.846;25.950;2023-04-20T05:09:50;100857.47;;;12.23;100.00
20630;BME280;17386;43.846;25.950;2023-04-20T05:12:15;100862.88;;;12.22;100.00
20630;BME280;17386;43.846;25.950;2023-04-20T05:14:41;100869.78;;;12.26;100.00
20630;BME280;17386;43.846;25.950;2023-04-20T05:17:06;100866.16;;;12.28;100.00
20630;BME280;17386;43.846;25.950;2023-04-20T05:19:31;100870.34;;;12.34;100.00
20630;BME280;17386;43.846;25.950;2023-04-20T05:21:57;100866.69;;;12.37;100.00
20630;BME280;17386;43.846;25.950;2023-04-20T05:24:22;100871.94;;;12.38;100.00
20630;BME280;17386;43.846;25.950;2023-04-20T05:26:48;100877.09;;;12.43;100.00
20630;BME280;17386;43.846;25.950;2023-04-20T05:29:14;100885.72;;;12.49;100.00
20630;BME280;17386;43.846;25.950;2023-04-20T05:31:40;100874.72;;;12.57;100.00
20630;BME280;17386;43.846;25.950;2023-04-20T05:34:05;100883.34;;;12.64;100.00
20630;BME280;17386;43.846;25.950;2023-04-20T05:36:31;100885.88;;;12.67;100.00
20630;BME280;17386;43.846;25.950;2023-04-20T05:38:58;100883.59;;;12.57;100.00
20630;BME280;17386;43.846;25.950;2023-04-20T05:41:23;100890.72;;;12.57;100.00
20630;BME280;17386;43.846;25.950;2023-04-20T05:43:52;100898.81;;;12.54;100.00
20630;BME280;17386;43.846;25.950;2023-04-20T05:46:18;100895.97;;;12.58;100.00
20630;BME280;17386;43.846;25.950;2023-04-20T05:48:43;100900.91;;;12.68;100.00
20630;BME280;17386;43.846;25.950;2023-04-20T05:51:09;100898.78;;;12.76;100.00
20630;BME280;17386;43.846;25.950;2023-04-20T05:53:35;100900.47;;;12.78;100.00
20630;BME280;17386;43.846;25.950;2023-04-20T05:56:00;100902.94;;;12.83;100.00
20630;BME280;17386;43.846;25.950;2023-04-20T05:58:26;100895.84;;;12.83;100.00
20630;BME280;17386;43.846;25.950;2023-04-20T06:00:52;100902.91;;;12.84;100.00
20630;BME280;17386;43.846;25.950;2023-04-20T06:03:18;100904.88;;;12.79;100.00
20630;BME280;17386;43.846;25.950;2023-04-20T06:05:44;100903.25;;;12.75;100.00
20630;BME280;17386;43.846;25.950;2023-04-20T06:08:09;100903.06;;;12.80;100.00
20630;BME280;17386;43.846;25.950;2023-04-20T06:10:34;100908.84;;;12.91;100.00
20630;BME280;17386;43.846;25.950;2023-04-20T06:13:00;100908.34;;;13.02;100.00
20630;BME280;17386;43.846;25.950;2023-04-20T06:15:25;100907.31;;;13.06;100.00
20630;BME280;17386;43.846;25.950;2023-04-20T06:17:51;100905.94;;;12.96;100.00
20630;BME280;17386;43.846;25.950;2023-04-20T06:20:16;100910.94;;;12.83;100.00
20630;BME280;17386;43.846;25.950;2023-04-20T06:22:42;100897.56;;;12.84;100.00
20630;BME280;17386;43.846;25.950;2023-04-20T06:25:11;100912.63;;;12.85;100.00
20630;BME280;17386;43.846;25.950;2023-04-20T06:27:37;100915.75;;;12.95;100.00
20630;BME280;17386;43.846;25.950;2023-04-20T06:30:03;100916.34;;;13.02;100.00
20630;BME280;17386;43.846;25.950;2023-04-20T06:32:30;100916.16;;;13.06;100.00
20630;BME280;17386;43.846;25.950;2023-04-20T06:34:55;100915.91;;;12.92;100.00
20630;BME280;17386;43.846;25.950;2023-04-20T06:37:20;100913.69;;;13.02;100.00
20630;BME280;17386;43.846;25.950;2023-04-20T06:39:46;100910.50;;;12.94;100.00
20630;BME280;17386;43.846;25.950;2023-04-20T06:42:11;100918.41;;;12.95;100.00
20630;BME280;17386;43.846;25.950;2023-04-20T06:44:38;100912.16;;;12.96;100.00
20630;BME280;17386;43.846;25.950;2023-04-20T06:47:03;100912.50;;;13.09;100.00
20630;BME280;17386;43.846;25.950;2023-04-20T06:49:29;100911.28;;;13.16;100.00
20630;BME280;17386;43.846;25.950;2023-04-20T06:51:54;100917.19;;;13.24;100.00
20630;BME280;17386;43.846;25.950;2023-04-20T06:54:20;100918.50;;;13.14;100.00
20630;BME280;17386;43.846;25.950;2023-04-20T06:56:45;100919.03;;;13.02;100.00
20630;BME280;17386;43.846;25.950;2023-04-20T06:59:11;100921.31;;;13.11;100.00
20630;BME280;17386;43.846;25.950;2023-04-20T07:01:36;100920.16;;;13.17;100.00
20630;BME280;17386;43.846;25.950;2023-04-20T07:04:01;100915.91;;;13.12;100.00
20630;BME280;17386;43.846;25.950;2023-04-20T07:06:27;100919.44;;;13.13;100.00
20630;BME280;17386;43.846;25.950;2023-04-20T07:08:52;100921.97;;;13.16;100.00
20630;BME280;17386;43.846;25.950;2023-04-20T07:11:18;100914.78;;;13.18;100.00
20630;BME280;17386;43.846;25.950;2023-04-20T07:13:43;100917.50;;;13.17;100.00
20630;BME280;17386;43.846;25.950;2023-04-20T07:16:08;100916.59;;;13.18;100.00
20630;BME280;17386;43.846;25.950;2023-04-20T07:18:34;100918.56;;;13.12;100.00
20630;BME280;17386;43.846;25.950;2023-04-20T07:21:00;100929.09;;;13.15;100.00
20630;BME280;17386;43.846;25.950;2023-04-20T07:23:26;100929.09;;;13.15;100.00
20630;BME280;17386;43.846;25.950;2023-04-20T07:25:51;100935.13;;;13.21;100.00
20630;BME280;17386;43.846;25.950;2023-04-20T07:28:16;100934.50;;;13.14;100.00
20630;BME280;17386;43.846;25.950;2023-04-20T07:30:42;100942.66;;;13.11;100.00
20630;BME280;17386;43.846;25.950;2023-04-20T07:33:07;100940.00;;;13.11;100.00
20630;BME280;17386;43.846;25.950;2023-04-20T07:35:35;100942.28;;;13.20;100.00
20630;BME280;17386;43.846;25.950;2023-04-20T07:38:00;100941.69;;;13.34;100.00
20630;BME280;17386;43.846;25.950;2023-04-20T07:40:26;100941.41;;;13.40;100.00
20630;BME280;17386;43.846;25.950;2023-04-20T07:42:51;100944.78;;;13.44;100.00
20630;BME280;17386;43.846;25.950;2023-04-20T07:45:18;100942.72;;;13.50;100.00
20630;BME280;17386;43.846;25.950;2023-04-20T07:47:44;100937.25;;;13.53;100.00
20630;BME280;17386;43.846;25.950;2023-04-20T07:50:11;100939.78;;;13.56;100.00
20630;BME280;17386;43.846;25.950;2023-04-20T07:52:36;100928.97;;;13.59;100.00
20630;BME280;17386;43.846;25.950;2023-04-20T07:55:02;100936.50;;;13.70;100.00
20630;BME280;17386;43.846;25.950;2023-04-20T07:57:28;100937.06;;;13.77;100.00
20630;BME280;17386;43.846;25.950;2023-04-20T07:59:54;100941.34;;;13.81;100.00
20630;BME280;17386;43.846;25.950;2023-04-20T08:02:19;100940.53;;;13.79;100.00
20630;BME280;17386;43.846;25.950;2023-04-20T08:04:45;100937.88;;;13.79;100.00
20630;BME280;17386;43.846;25.950;2023-04-20T08:07:10;100939.63;;;13.80;100.00
20630;BME280;17386;43.846;25.950;2023-04-20T08:09:36;100933.38;;;13.79;100.00
20630;BME280;17386;43.846;25.950;2023-04-20T08:12:02;100932.53;;;13.79;100.00
20630;BME280;17386;43.846;25.950;2023-04-20T08:14:27;100945.88;;;13.79;100.00
20630;BME280;17386;43.846;25.950;2023-04-20T08:16:53;100942.41;;;13.77;100.00
20630;BME280;17386;43.846;25.950;2023-04-20T08:19:18;100936.13;;;13.78;100.00
20630;BME280;17386;43.846;25.950;2023-04-20T08:21:44;100936.50;;;13.70;100.00
20630;BME280;17386;43.846;25.950;2023-04-20T08:24:10;100944.66;;;13.67;100.00
20630;BME280;17386;43.846;25.950;2023-04-20T08:26:37;100941.91;;;13.68;100.00
20630;BME280;17386;43.846;25.950;2023-04-20T08:29:03;100938.22;;;13.71;100.00
20630;BME280;17386;43.846;25.950;2023-04-20T08:31:30;100942.41;;;13.77;100.00
20630;BME280;17386;43.846;25.950;2023-04-20T08:33:55;100939.47;;;13.83;100.00
20630;BME280;17386;43.846;25.950;2023-04-20T08:36:21;100941.94;;;13.87;100.00
20630;BME280;17386;43.846;25.950;2023-04-20T08:38:56;100943.44;;;13.74;100.00
20630;BME280;17386;43.846;25.950;2023-04-20T08:41:21;100939.06;;;13.53;100.00
20630;BME280;17386;43.846;25.950;2023-04-20T08:43:47;100943.00;;;13.44;100.00
20630;BME280;17386;43.846;25.950;2023-04-20T08:46:14;100941.31;;;13.62;100.00
20630;BME280;17386;43.846;25.950;2023-04-20T08:48:44;100944.22;;;13.76;100.00
20630;BME280;17386;43.846;25.950;2023-04-20T08:51:10;100942.00;;;13.86;100.00
20630;BME280;17386;43.846;25.950;2023-04-20T08:53:36;100947.88;;;13.94;100.00
20630;BME280;17386;43.846;25.950;2023-04-20T08:56:02;100949.34;;;14.00;100.00
20630;BME280;17386;43.846;25.950;2023-04-20T08:58:29;100943.09;;;14.01;100.00
20630;BME280;17386;43.846;25.950;2023-04-20T09:00:58;100943.81;;;14.23;100.00
20630;BME280;17386;43.846;25.950;2023-04-20T09:03:39;100935.94;;;14.39;100.00
20630;BME280;17386;43.846;25.950;2023-04-20T09:06:14;100940.94;;;14.46;100.00
20630;BME280;17386;43.846;25.950;2023-04-20T09:08:41;100941.28;;;14.58;100.00
20630;BME280;17386;43.846;25.950;2023-04-20T09:16:31;100945.50;;;15.32;100.00
20630;BME280;17386;43.846;25.950;2023-04-20T09:18:57;100947.53;;;15.62;100.00
20630;BME280;17386;43.846;25.950;2023-04-20T09:21:24;100942.94;;;15.97;98.75
20630;BME280;17386;43.846;25.950;2023-04-20T09:24:03;100947.66;;;16.25;97.42
20630;BME280;17386;43.846;25.950;2023-04-20T09:26:32;100942.81;;;16.48;96.99
20630;BME280;17386;43.846;25.950;2023-04-20T09:28:59;100943.75;;;16.62;95.27
20630;BME280;17386;43.846;25.950;2023-04-20T09:31:25;100956.81;;;16.68;94.42
20630;BME280;17386;43.846;25.950;2023-04-20T09:34:03;100955.53;;;16.76;93.07
20630;BME280;17386;43.846;25.950;2023-04-20T09:36:38;100951.81;;;16.78;93.04
20630;BME280;17386;43.846;25.950;2023-04-20T09:39:08;100952.22;;;16.39;92.98
20630;BME280;17386;43.846;25.950;2023-04-20T09:41:34;100953.97;;;16.08;95.52
20630;BME280;17386;43.846;25.950;2023-04-20T09:44:01;100951.44;;;16.05;96.54
20630;BME280;17386;43.846;25.950;2023-04-20T09:46:28;100953.09;;;16.08;95.72
20630;BME280;17386;43.846;25.950;2023-04-20T09:48:57;100948.06;;;15.86;96.61
20630;BME280;17386;43.846;25.950;2023-04-20T09:51:27;100949.88;;;15.85;97.18
20630;BME280;17386;43.846;25.950;2023-04-20T09:53:55;100954.47;;;15.99;96.90
20630;BME280;17386;43.846;25.950;2023-04-20T09:56:21;100944.28;;;16.06;97.42
20630;BME280;17386;43.846;25.950;2023-04-20T09:58:46;100947.00;;;15.89;97.44
20630;BME280;17386;43.846;25.950;2023-04-20T10:01:12;100939.00;;;16.04;97.14
20630;BME280;17386;43.846;25.950;2023-04-20T10:03:40;100944.72;;;16.14;97.30
20630;BME280;17386;43.846;25.950;2023-04-20T10:06:28;100947.22;;;16.17;95.64
20630;BME280;17386;43.846;25.950;2023-04-20T10:08:54;100934.16;;;15.95;98.14
20630;BME280;17386;43.846;25.950;2023-04-20T10:11:35;100939.00;;;16.52;97.85
20630;BME280;17386;43.846;25.950;2023-04-20T10:14:25;100933.31;;;17.04;94.72
20630;BME280;17386;43.846;25.950;2023-04-20T10:17:05;100940.75;;;17.29;92.90
20630;BME280;17386;43.846;25.950;2023-04-20T10:19:46;100938.03;;;17.59;90.96
20630;BME280;17386;43.846;25.950;2023-04-20T10:22:24;100926.84;;;17.81;88.61
20630;BME280;17386;43.846;25.950;2023-04-20T10:24:53;100937.75;;;18.20;87.40
20630;BME280;17386;43.846;25.950;2023-04-20T10:27:19;100939.06;;;18.42;85.46
20630;BME280;17386;43.846;25.950;2023-04-20T10:29:45;100931.16;;;18.53;84.37
20630;BME280;17386;43.846;25.950;2023-04-20T10:32:26;100924.47;;;18.58;83.43
20630;BME280;17386;43.846;25.950;2023-04-20T10:35:01;100921.50;;;18.63;82.61
20630;BME280;17386;43.846;25.950;2023-04-20T10:37:27;100919.56;;;18.65;83.97
20630;BME280;17386;43.846;25.950;2023-04-20T10:39:53;100924.13;;;18.50;80.82
20630;BME280;17386;43.846;25.950;2023-04-20T10:42:18;100915.63;;;18.29;81.52
20630;BME280;17386;43.846;25.950;2023-04-20T10:44:51;100912.78;;;18.04;83.96
20630;BME280;17386;43.846;25.950;2023-04-20T10:47:17;100917.25;;;18.32;84.56
20630;BME280;17386;43.846;25.950;2023-04-20T10:49:50;100911.38;;;18.81;82.74
20630;BME280;17386;43.846;25.950;2023-04-20T10:52:15;100900.22;;;19.12;81.15
20630;BME280;17386;43.846;25.950;2023-04-20T10:54:41;100911.56;;;19.18;78.73
20630;BME280;17386;43.846;25.950;2023-04-20T10:57:06;100910.88;;;19.14;78.36
20630;BME280;17386;43.846;25.950;2023-04-20T10:59:32;100920.25;;;18.69;78.60
20630;BME280;17386;43.846;25.950;2023-04-20T11:02:08;100909.75;;;18.64;80.37
20630;BME280;17386;43.846;25.950;2023-04-20T11:04:36;100910.88;;;18.47;81.05
20630;BME280;17386;43.846;25.950;2023-04-20T11:07:09;100909.97;;;18.34;81.24
20630;BME280;17386;43.846;25.950;2023-04-20T11:09:35;100912.66;;;18.61;79.46
20630;BME280;17386;43.846;25.950;2023-04-20T11:12:03;100905.22;;;18.79;78.63
20630;BME280;17386;43.846;25.950;2023-04-20T11:14:30;100897.00;;;18.68;79.73
20630;BME280;17386;43.846;25.950;2023-04-20T11:16:56;100897.06;;;17.98;82.57
20630;BME280;17386;43.846;25.950;2023-04-20T11:19:23;100896.91;;;18.28;82.39
20630;BME280;17386;43.846;25.950;2023-04-20T11:21:49;100901.50;;;17.99;81.87
20630;BME280;17386;43.846;25.950;2023-04-20T11:24:25;100887.34;;;18.10;82.27
20630;BME280;17386;43.846;25.950;2023-04-20T11:26:52;100891.25;;;18.18;80.12
20630;BME280;17386;43.846;25.950;2023-04-20T11:31:52;100891.81;;;18.23;78.51
20630;BME280;17386;43.846;25.950;2023-04-20T11:34:17;100879.22;;;17.97;79.23
20630;BME280;17386;43.846;25.950;2023-04-20T11:36:44;100877.22;;;17.86;79.33
20630;BME280;17386;43.846;25.950;2023-04-20T11:39:10;100877.34;;;18.12;77.82
20630;BME280;17386;43.846;25.950;2023-04-20T11:41:38;100880.50;;;18.33;75.30
20630;BME280;17386;43.846;25.950;2023-04-20T11:44:04;100874.16;;;18.34;75.46
20630;BME280;17386;43.846;25.950;2023-04-20T11:46:33;100869.84;;;18.17;76.38
20630;BME280;17386;43.846;25.950;2023-04-20T11:48:59;100874.66;;;18.26;74.95
20630;BME280;17386;43.846;25.950;2023-04-20T11:51:26;100871.59;;;18.45;75.34
20630;BME280;17386;43.846;25.950;2023-04-20T11:53:52;100873.91;;;18.64;75.68
20630;BME280;17386;43.846;25.950;2023-04-20T11:56:17;100868.19;;;18.82;75.50
20630;BME280;17386;43.846;25.950;2023-04-20T11:58:43;100858.09;;;18.99;75.00
20630;BME280;17386;43.846;25.950;2023-04-20T12:01:08;100869.31;;;19.18;73.42
20630;BME280;17386;43.846;25.950;2023-04-20T12:03:34;100858.31;;;19.47;73.53
20630;BME280;17386;43.846;25.950;2023-04-20T12:06:01;100852.72;;;19.75;72.20
20630;BME280;17386;43.846;25.950;2023-04-20T12:08:26;100856.91;;;19.92;70.42
20630;BME280;17386;43.846;25.950;2023-04-20T12:10:52;100855.91;;;19.93;70.17
20630;BME280;17386;43.846;25.950;2023-04-20T12:13:17;100856.47;;;19.85;70.83
20630;BME280;17386;43.846;25.950;2023-04-20T12:15:43;100853.44;;;19.90;70.40
20630;BME280;17386;43.846;25.950;2023-04-20T12:18:08;100853.09;;;19.94;70.49
20630;BME280;17386;43.846;25.950;2023-04-20T12:20:35;100850.41;;;19.94;70.28
20630;BME280;17386;43.846;25.950;2023-04-20T12:23:00;100841.69;;;19.91;70.43
20630;BME280;17386;43.846;25.950;2023-04-20T12:25:26;100840.56;;;19.70;71.85
20630;BME280;17386;43.846;25.950;2023-04-20T12:27:52;100840.88;;;19.65;71.31
20630;BME280;17386;43.846;25.950;2023-04-20T12:30:17;100838.72;;;19.45;71.31
20630;BME280;17386;43.846;25.950;2023-04-20T12:32:42;100838.06;;;19.28;71.79
20630;BME280;17386;43.846;25.950;2023-04-20T12:35:08;100839.59;;;19.20;73.50
20630;BME280;17386;43.846;25.950;2023-04-20T12:37:33;100835.50;;;19.01;73.53